createdAt,value
2018-07-24T00:01:41.555Z,100989.56
2018-07-24T00:04:48.947Z,100989.17
2018-07-24T00:07:58.756Z,100988.45
2018-07-24T00:11:11.636Z,100989.35
2018-07-24T00:14:23.166Z,100990.95
2018-07-24T00:17:29.633Z,100984.39
2018-07-24T00:20:36.424Z,100986.74
2018-07-24T00:23:52.374Z,100983.63
2018-07-24T00:26:58.713Z,100981.94
2018-07-24T00:30:09.532Z,100978.20
2018-07-24T00:33:17.202Z,100975.13
2018-07-24T00:36:23.585Z,100983.27
2018-07-24T00:39:35.869Z,100977.66
2018-07-24T00:42:40.152Z,100973.18
2018-07-24T00:45:50.641Z,100972.38
2018-07-24T00:48:56.577Z,100972.78
2018-07-24T00:52:01.536Z,100968.48
2018-07-24T00:59:20.328Z,100965.14
2018-07-24T01:02:35.633Z,100963.59
2018-07-24T01:05:40.507Z,100955.80
2018-07-24T01:08:45.403Z,100957.84
2018-07-24T01:11:50.230Z,100956.25
2018-07-24T01:14:56.790Z,100962.88
2018-07-24T01:18:02.584Z,100971.73
2018-07-24T01:21:10.179Z,100975.98
2018-07-24T01:24:17.696Z,100971.27
2018-07-24T01:27:27.859Z,100969.69
2018-07-24T01:30:33.766Z,100974.62
2018-07-24T01:33:38.082Z,100969.45
2018-07-24T01:36:42.477Z,100961.59
2018-07-24T01:39:46.777Z,100958.28
2018-07-24T01:42:51.517Z,100954.52
2018-07-24T01:45:55.680Z,100960.91
2018-07-24T01:49:00.492Z,100959.13
2018-07-24T01:52:06.251Z,100959.61
2018-07-24T01:55:11.921Z,100958.00
2018-07-24T01:58:19.402Z,100963.33
2018-07-24T02:01:25.079Z,100954.52
2018-07-24T02:04:34.366Z,100956.35
2018-07-24T02:07:48.366Z,100953.31
2018-07-24T02:10:57.561Z,100950.22
2018-07-24T02:14:01.643Z,100956.12
2018-07-24T02:17:07.676Z,100946.27
2018-07-24T02:20:15.469Z,100954.44
2018-07-24T02:23:20.848Z,100955.23
2018-07-24T02:26:28.776Z,100948.44
2018-07-24T02:29:37.180Z,100946.36
2018-07-24T02:32:42.837Z,100949.89
2018-07-24T02:35:48.537Z,100953.80
2018-07-24T02:38:52.659Z,100952.16
2018-07-24T02:41:58.681Z,100943.71
2018-07-24T02:45:03.016Z,100944.82
2018-07-24T02:48:07.960Z,100945.00
2018-07-24T02:51:14.609Z,100944.80
2018-07-24T02:54:23.150Z,100954.86
2018-07-24T02:57:27.077Z,100952.63
2018-07-24T03:00:34.358Z,100966.69
2018-07-24T03:03:39.180Z,100963.19
2018-07-24T03:06:45.240Z,100960.13
2018-07-24T03:09:53.137Z,100960.81
2018-07-24T03:13:00.017Z,100961.98
2018-07-24T03:16:04.611Z,100962.16
2018-07-24T03:19:08.362Z,100961.03
2018-07-24T03:22:13.199Z,100971.64
2018-07-24T03:25:19.038Z,100967.38
2018-07-24T03:28:24.381Z,100972.20
2018-07-24T03:31:29.030Z,100970.62
2018-07-24T03:34:33.799Z,100974.00
2018-07-24T03:37:40.214Z,100972.98
2018-07-24T03:43:56.252Z,100971.78
2018-07-24T03:47:02.254Z,100985.64
2018-07-24T03:50:10.913Z,100985.41
2018-07-24T03:53:18.833Z,100984.78
2018-07-24T03:56:26.114Z,100995.80
2018-07-24T04:02:49.233Z,100984.66
2018-07-24T04:05:56.707Z,100978.69
2018-07-24T04:09:02.307Z,100975.76
2018-07-24T04:12:12.938Z,100971.45
2018-07-24T04:15:20.525Z,100979.62
2018-07-24T04:18:24.451Z,100983.03
2018-07-24T04:21:28.141Z,100984.05
2018-07-24T04:24:31.744Z,100987.15
2018-07-24T04:27:37.816Z,100987.81
2018-07-24T04:30:41.586Z,100991.20
2018-07-24T04:33:46.063Z,100986.46
2018-07-24T04:36:52.815Z,100989.91
2018-07-24T04:39:56.780Z,100984.25
2018-07-24T04:43:01.068Z,100987.96
2018-07-24T04:46:07.800Z,100996.86
2018-07-24T04:49:15.129Z,101000.20
2018-07-24T04:52:19.857Z,100996.56
2018-07-24T04:55:25.528Z,101000.92
2018-07-24T04:58:35.899Z,100998.94
2018-07-24T05:01:42.255Z,100998.69
2018-07-24T05:04:48.212Z,100994.66
2018-07-24T05:07:55.737Z,100984.89
2018-07-24T05:11:01.874Z,100989.09
2018-07-24T05:14:07.008Z,100985.80
2018-07-24T05:17:13.273Z,100989.00
2018-07-24T05:20:19.461Z,100986.00
2018-07-24T05:23:24.851Z,100987.79
2018-07-24T05:26:28.815Z,100994.52
2018-07-24T05:29:32.507Z,100995.23
2018-07-24T05:32:36.224Z,100993.70
2018-07-24T05:35:40.034Z,100996.98
2018-07-24T05:38:43.704Z,100989.48
2018-07-24T05:41:48.597Z,100995.08
2018-07-24T05:44:52.374Z,100998.03
2018-07-24T05:47:56.452Z,100998.86
2018-07-24T05:51:00.330Z,101003.76
2018-07-24T05:54:06.933Z,101007.91
2018-07-24T05:57:10.815Z,101005.49
2018-07-24T06:00:18.318Z,101005.08
2018-07-24T06:06:38.069Z,101004.58
2018-07-24T06:20:37.142Z,101015.06
2018-07-24T06:31:04.134Z,101004.20
2018-07-24T06:34:09.044Z,101005.25
2018-07-24T06:37:17.942Z,101008.50
2018-07-24T06:40:38.937Z,101008.90
2018-07-24T06:43:50.763Z,101012.80
2018-07-24T06:46:56.346Z,101010.47
2018-07-24T06:50:01.621Z,101011.69
2018-07-24T06:53:09.108Z,101006.13
2018-07-24T06:56:15.126Z,101010.41
2018-07-24T06:59:20.679Z,101013.77
2018-07-24T07:02:27.335Z,101008.84
2018-07-24T07:05:30.904Z,101003.12
2018-07-24T07:08:34.630Z,101011.45
2018-07-24T07:11:38.269Z,101011.58
2018-07-24T07:14:41.849Z,101011.40
2018-07-24T07:17:46.974Z,101014.45
2018-07-24T07:21:10.396Z,101003.56
2018-07-24T07:24:14.087Z,101010.34
2018-07-24T07:27:18.565Z,101015.12
2018-07-24T07:30:22.076Z,101017.67
2018-07-24T07:33:25.682Z,101022.89
2018-07-24T07:36:29.384Z,101012.87
2018-07-24T07:39:33.007Z,101017.93
2018-07-24T07:42:36.912Z,101016.20
2018-07-24T07:45:41.395Z,101017.39
2018-07-24T07:52:15.792Z,101004.00
2018-07-24T07:55:20.164Z,100999.39
2018-07-24T07:58:23.767Z,100991.47
2018-07-24T08:01:27.579Z,101000.77
2018-07-24T08:04:31.181Z,100998.32
2018-07-24T08:07:35.939Z,100995.75
2018-07-24T08:10:39.450Z,100993.44
2018-07-24T08:13:43.170Z,100992.94
2018-07-24T08:16:49.151Z,100995.02
2018-07-24T08:19:52.831Z,100990.62
2018-07-24T08:22:58.020Z,100987.64
2018-07-24T08:26:03.388Z,100991.80
2018-07-24T08:29:08.246Z,100984.86
2018-07-24T08:32:12.813Z,100982.44
2018-07-24T08:35:16.885Z,100980.45
2018-07-24T08:38:20.987Z,100977.16
2018-07-24T08:41:25.614Z,100972.79
2018-07-24T08:44:29.555Z,100971.02
2018-07-24T08:47:34.441Z,100970.92
2018-07-24T08:50:37.995Z,100970.79
2018-07-24T08:53:42.893Z,100968.29
2018-07-24T08:56:46.050Z,100960.69
2018-07-24T08:59:49.649Z,100963.34
2018-07-24T09:02:53.280Z,100955.66
2018-07-24T09:05:56.962Z,100958.13
2018-07-24T09:09:00.697Z,100952.88
2018-07-24T09:12:04.376Z,100950.68
2018-07-24T09:15:08.051Z,100944.48
2018-07-24T09:18:11.763Z,100948.52
2018-07-24T09:21:17.082Z,100947.66
2018-07-24T09:24:20.814Z,100947.20
2018-07-24T09:27:25.897Z,100953.38
2018-07-24T09:30:29.743Z,100952.60
2018-07-24T09:33:33.346Z,100943.48
2018-07-24T09:36:36.941Z,100937.44
2018-07-24T09:39:40.607Z,100943.51
2018-07-24T09:42:44.314Z,100943.05
2018-07-24T09:45:47.946Z,100943.27
2018-07-24T09:48:52.226Z,100941.72
2018-07-24T09:51:56.664Z,100942.97
2018-07-24T09:55:02.562Z,100942.98
2018-07-24T09:58:06.300Z,100941.44
2018-07-24T10:01:41.009Z,100943.34
2018-07-24T10:04:44.704Z,100934.84
2018-07-24T10:07:48.285Z,100937.66
2018-07-24T10:10:52.216Z,100935.58
2018-07-24T10:13:56.128Z,100916.97
2018-07-24T10:16:59.751Z,100926.23
2018-07-24T10:20:03.437Z,100931.87
2018-07-24T10:23:07.197Z,100927.61
2018-07-24T10:26:11.775Z,100923.69
2018-07-24T10:29:23.127Z,100908.05
2018-07-24T10:32:26.831Z,100915.70
2018-07-24T10:35:30.571Z,100903.72
2018-07-24T10:38:34.549Z,100905.39
2018-07-24T10:41:38.358Z,100904.75
2018-07-24T10:44:41.984Z,100903.67
2018-07-24T10:47:46.795Z,100894.29
2018-07-24T10:50:50.513Z,100897.77
2018-07-24T10:53:54.315Z,100898.97
2018-07-24T10:56:58.051Z,100902.24
2018-07-24T11:00:01.728Z,100891.57
2018-07-24T11:03:05.768Z,100894.82
2018-07-24T11:06:09.552Z,100889.39
2018-07-24T11:09:13.224Z,100892.05
2018-07-24T11:12:16.858Z,100884.63
2018-07-24T11:15:20.565Z,100884.96
2018-07-24T11:18:25.240Z,100877.79
2018-07-24T11:21:29.890Z,100874.88
2018-07-24T11:24:35.176Z,100871.27
2018-07-24T11:27:39.091Z,100875.97
2018-07-24T11:30:42.968Z,100878.86
2018-07-24T11:33:46.572Z,100881.10
2018-07-24T11:36:50.103Z,100874.73
2018-07-24T11:39:54.624Z,100879.52
2018-07-24T11:42:58.192Z,100878.15
2018-07-24T11:46:02.765Z,100880.58
2018-07-24T11:49:06.292Z,100875.00
2018-07-24T11:52:09.851Z,100883.33
2018-07-24T11:55:14.065Z,100874.61
2018-07-24T11:58:20.910Z,100863.31
2018-07-24T12:01:24.806Z,100868.73
2018-07-24T12:04:28.464Z,100861.54
2018-07-24T12:07:31.956Z,100864.11
2018-07-24T12:10:35.441Z,100862.09
2018-07-24T12:13:39.208Z,100853.84
2018-07-24T12:16:43.737Z,100856.27
2018-07-24T12:19:47.711Z,100854.98
2018-07-24T12:22:52.288Z,100847.16
2018-07-24T12:32:58.301Z,100845.88
2018-07-24T12:36:02.197Z,100852.05
2018-07-24T12:39:08.666Z,100844.59
2018-07-24T12:42:13.224Z,100841.45
2018-07-24T12:45:17.509Z,100829.06
2018-07-24T12:48:21.222Z,100836.84
2018-07-24T12:51:24.960Z,100837.34
2018-07-24T12:54:29.277Z,100837.14
2018-07-24T12:57:33.977Z,100836.99
2018-07-24T13:00:38.776Z,100832.33
2018-07-24T13:03:42.412Z,100827.37
2018-07-24T13:06:48.189Z,100829.26
2018-07-24T13:09:52.596Z,100835.29
2018-07-24T13:12:56.824Z,100823.68
2018-07-24T13:16:01.323Z,100826.59
2018-07-24T13:19:05.664Z,100815.77
2018-07-24T13:22:09.325Z,100816.10
2018-07-24T13:25:13.016Z,100814.86
2018-07-24T13:28:16.631Z,100815.77
2018-07-24T13:31:21.392Z,100814.30
2018-07-24T13:34:25.612Z,100809.39
2018-07-24T13:37:29.764Z,100809.05
2018-07-24T13:40:33.435Z,100797.45
2018-07-24T13:43:37.810Z,100799.10
2018-07-24T13:46:41.769Z,100796.70
2018-07-24T13:49:46.563Z,100791.03
2018-07-24T13:52:51.102Z,100797.91
2018-07-24T13:55:54.868Z,100792.31
2018-07-24T13:58:58.882Z,100785.94
2018-07-24T14:02:07.291Z,100789.10
2018-07-24T14:05:12.249Z,100789.23
2018-07-24T14:08:15.833Z,100790.20
2018-07-24T14:11:20.439Z,100786.73
2018-07-24T14:14:24.037Z,100786.41
2018-07-24T14:17:29.105Z,100786.78
2018-07-24T14:20:33.168Z,100786.53
2018-07-24T14:23:37.113Z,100782.29
2018-07-24T14:26:42.354Z,100783.16
2018-07-24T14:29:47.062Z,100780.56
2018-07-24T14:32:54.516Z,100780.33
2018-07-24T14:35:58.645Z,100780.19
2018-07-24T14:39:02.807Z,100773.98
2018-07-24T14:42:07.168Z,100770.34
2018-07-24T14:45:11.944Z,100772.11
2018-07-24T14:48:16.395Z,100768.33
2018-07-24T14:51:20.818Z,100771.30
2018-07-24T14:54:24.447Z,100769.10
2018-07-24T14:57:30.044Z,100770.17
2018-07-24T15:00:34.385Z,100767.42
2018-07-24T15:03:39.151Z,100758.92
2018-07-24T15:06:43.497Z,100767.00
2018-07-24T15:09:47.288Z,100769.58
2018-07-24T15:12:52.472Z,100762.39
2018-07-24T15:15:58.015Z,100760.42
2018-07-24T15:19:02.640Z,100757.06
2018-07-24T15:22:07.453Z,100755.66
2018-07-24T15:25:13.812Z,100752.94
2018-07-24T15:28:18.295Z,100748.22
2018-07-24T15:31:24.563Z,100747.53
2018-07-24T15:34:30.827Z,100744.73
2018-07-24T15:41:02.576Z,100740.22
2018-07-24T15:44:07.285Z,100735.80
2018-07-24T15:47:13.655Z,100738.16
2018-07-24T15:50:20.436Z,100738.16
2018-07-24T15:53:25.676Z,100740.05
2018-07-24T15:56:33.054Z,100730.12
2018-07-24T15:59:36.760Z,100732.66
2018-07-24T16:02:41.505Z,100733.09
2018-07-24T16:05:46.055Z,100730.13
2018-07-24T16:08:51.627Z,100729.53
2018-07-24T16:11:55.937Z,100729.18
2018-07-24T16:14:59.841Z,100720.80
2018-07-24T16:18:03.690Z,100722.78
2018-07-24T16:21:08.421Z,100719.17
2018-07-24T16:24:12.073Z,100716.85
2018-07-24T16:27:16.512Z,100718.80
2018-07-24T16:30:21.252Z,100716.77
2018-07-24T16:33:25.860Z,100717.51
2018-07-24T16:36:30.636Z,100713.67
2018-07-24T16:39:34.341Z,100710.64
2018-07-24T16:42:38.144Z,100704.78
2018-07-24T16:45:41.914Z,100708.82
2018-07-24T16:48:46.513Z,100708.03
2018-07-24T16:51:51.144Z,100704.36
2018-07-24T16:54:54.883Z,100705.78
2018-07-24T16:58:00.313Z,100700.53
2018-07-24T17:01:05.299Z,100695.42
2018-07-24T17:04:11.584Z,100690.33
2018-07-24T17:07:15.481Z,100691.98
2018-07-24T17:10:19.262Z,100687.86
2018-07-24T17:13:23.618Z,100687.04
2018-07-24T17:16:30.041Z,100695.09
2018-07-24T17:19:38.417Z,100690.05
2018-07-24T17:22:42.883Z,100690.70
2018-07-24T17:25:49.152Z,100696.66
2018-07-24T17:28:54.352Z,100697.02
2018-07-24T17:31:59.949Z,100706.12
2018-07-24T17:35:03.760Z,100702.55
2018-07-24T17:38:09.517Z,100702.64
2018-07-24T17:41:13.909Z,100702.97
2018-07-24T17:44:17.392Z,100705.41
2018-07-24T17:47:20.833Z,100709.78
2018-07-24T17:50:24.475Z,100708.83
2018-07-24T17:53:28.251Z,100700.79
2018-07-24T17:56:31.728Z,100705.84
2018-07-24T17:59:35.330Z,100705.83
2018-07-24T18:02:39.590Z,100714.17
2018-07-24T18:05:44.100Z,100712.80
2018-07-24T18:08:47.563Z,100720.03
2018-07-24T18:11:51.116Z,100722.63
2018-07-24T18:14:55.245Z,100728.27
2018-07-24T18:17:58.930Z,100733.86
2018-07-24T18:21:02.546Z,100735.20
2018-07-24T18:24:06.657Z,100728.87
2018-07-24T18:27:10.644Z,100732.47
2018-07-24T18:30:14.465Z,100738.45
2018-07-24T18:33:19.102Z,100735.28
2018-07-24T18:36:25.892Z,100742.71
2018-07-24T18:39:32.323Z,100744.84
2018-07-24T18:42:43.522Z,100741.92
2018-07-24T18:45:48.711Z,100742.85
2018-07-24T18:48:57.753Z,100745.73
2018-07-24T18:52:14.641Z,100741.03
2018-07-24T18:55:25.849Z,100740.55
2018-07-24T18:58:33.209Z,100747.14
2018-07-24T19:01:37.877Z,100745.20
2018-07-24T19:04:50.479Z,100750.39
2018-07-24T19:08:05.187Z,100752.20
2018-07-24T19:11:21.017Z,100751.03
2018-07-24T19:14:27.867Z,100758.85
2018-07-24T19:28:27.670Z,100761.94
2018-07-24T20:01:55.685Z,100765.84
2018-07-24T20:05:07.189Z,100770.57
2018-07-24T20:08:24.618Z,100771.43
2018-07-24T20:11:36.086Z,100771.87
2018-07-24T20:14:57.605Z,100764.53
2018-07-24T20:18:03.025Z,100760.10
2018-07-24T20:21:18.406Z,100766.74
2018-07-24T20:24:24.106Z,100765.70
2018-07-24T20:49:43.431Z,100776.47
2018-07-24T20:52:48.983Z,100775.83
2018-07-24T20:55:55.192Z,100785.11
2018-07-24T20:59:05.386Z,100783.39
2018-07-24T21:02:27.558Z,100780.08
2018-07-24T21:05:52.218Z,100787.86
2018-07-24T21:08:57.370Z,100788.90
2018-07-24T21:12:07.695Z,100785.17
2018-07-24T21:22:38.506Z,100793.27
2018-07-24T21:26:15.477Z,100796.41
2018-07-24T21:29:20.926Z,100794.40
2018-07-24T21:32:26.429Z,100794.13
2018-07-24T21:35:31.906Z,100788.90
2018-07-24T21:38:35.804Z,100795.48
2018-07-24T21:41:41.798Z,100796.08
2018-07-24T21:44:46.234Z,100795.44
2018-07-24T21:47:53.539Z,100800.94
2018-07-24T21:51:15.195Z,100794.56
2018-07-24T21:54:19.375Z,100802.64
2018-07-24T21:57:25.903Z,100800.84
2018-07-24T22:00:34.494Z,100797.54
2018-07-24T22:03:40.279Z,100796.90
2018-07-24T22:06:44.932Z,100798.58
2018-07-24T22:09:49.811Z,100796.69
2018-07-24T22:12:54.692Z,100798.41
2018-07-24T22:15:58.937Z,100795.97
2018-07-24T22:19:06.442Z,100798.15
2018-07-24T22:22:10.257Z,100799.36
2018-07-24T22:25:18.994Z,100804.05
2018-07-24T22:28:22.618Z,100801.30
2018-07-24T22:31:26.302Z,100803.84
2018-07-24T22:34:30.310Z,100803.34
2018-07-24T22:37:33.952Z,100799.58
2018-07-24T22:40:37.468Z,100804.70
2018-07-24T22:43:43.634Z,100807.31
2018-07-24T22:46:48.397Z,100798.16
2018-07-24T22:49:53.381Z,100807.58
2018-07-24T22:52:57.093Z,100806.21
2018-07-24T22:56:00.746Z,100796.65
2018-07-24T22:59:05.062Z,100798.55
2018-07-24T23:02:08.700Z,100802.06
2018-07-24T23:05:13.094Z,100804.84
2018-07-24T23:08:16.933Z,100807.02
2018-07-24T23:11:20.605Z,100797.70
2018-07-24T23:14:24.127Z,100800.60
2018-07-24T23:17:27.876Z,100801.00
2018-07-24T23:20:31.543Z,100801.09
2018-07-24T23:23:35.821Z,100800.75
2018-07-24T23:26:39.420Z,100804.16
2018-07-24T23:29:44.034Z,100809.82
2018-07-24T23:32:47.697Z,100803.70
2018-07-24T23:35:51.795Z,100808.02
2018-07-24T23:38:55.878Z,100797.81
2018-07-24T23:42:00.265Z,100803.09
2018-07-24T23:45:03.964Z,100801.11
2018-07-24T23:48:07.598Z,100799.20
2018-07-24T23:51:12.216Z,100801.61
2018-07-24T23:54:15.776Z,100795.86
2018-07-24T23:57:20.421Z,100805.75
